Time;durP1;ratioP1;P1;durP2;ratioP2;P2;SDS_P1;SDS_P2;PMS_P1;PMS_P2;Temp;Humidity;BMP_temperature;BMP_pressure;BME280_temperature;BME280_humidity;BME280_pressure;Samples;Min_cycle;Max_cycle;Signal;HPM_P1;HPM_P2
2023/11/21 00:01:35;;;;;;;35.22;29.63;;;;;;;10.99;95.53;97826.66;5049525;28;20583;-67
2023/11/21 00:04:03;;;;;;;37.67;30.90;;;;;;;10.85;94.77;97817.75;5030143;28;20033;-67
2023/11/21 00:06:29;;;;;;;41.60;30.58;;;;;;;10.87;94.36;97823.59;5034966;28;21765;-67
2023/11/21 00:08:55;;;;;;;38.08;31.02;;;;;;;10.73;94.58;97796.47;5028462;28;20053;-68
2023/11/21 00:11:21;;;;;;;35.35;30.75;;;;;;;10.71;95.05;97785.44;5046566;28;20191;-67
2023/11/21 00:13:49;;;;;;;36.03;30.10;;;;;;;10.97;95.60;97816.44;5031875;28;20528;-67
2023/11/21 00:16:16;;;;;;;39.03;30.60;;;;;;;10.99;95.85;97821.44;5026631;28;20029;-68
2023/11/21 00:18:42;;;;;;;37.28;30.52;;;;;;;10.94;95.66;97827.97;5032150;28;20090;-67
2023/11/21 00:21:13;;;;;;;36.72;30.73;;;;;;;10.85;95.52;97820.34;5027869;28;20437;-67
2023/11/21 00:23:38;;;;;;;37.03;30.35;;;;;;;10.85;95.61;97825.56;5031751;28;20029;-67
2023/11/21 00:26:04;;;;;;;38.15;30.23;;;;;;;10.84;95.94;97818.72;5027291;28;20079;-67
2023/11/21 00:28:29;;;;;;;38.45;30.67;;;;;;;10.92;96.36;97822.13;5015617;28;20029;-68
2023/11/21 00:30:55;;;;;;;36.45;30.27;;;;;;;10.72;95.01;97797.47;5008311;28;20020;-66
2023/11/21 00:33:23;;;;;;;35.95;29.52;;;;;;;10.86;94.85;97816.75;5030788;28;21038;-68
2023/11/21 00:35:48;;;;;;;38.33;30.00;;;;;;;10.82;95.16;97823.28;5027921;28;20719;-67
2023/11/21 00:38:14;;;;;;;34.92;29.00;;;;;;;10.80;95.69;97815.63;5024290;28;20010;-68
2023/11/21 00:40:39;;;;;;;36.85;29.08;;;;;;;10.87;95.20;97816.59;5013394;28;20495;-68
2023/11/21 00:43:05;;;;;;;33.45;28.98;;;;;;;10.71;95.06;97773.22;5041486;28;20028;-67
2023/11/21 00:45:30;;;;;;;36.40;28.67;;;;;;;11.01;95.23;97803.91;5030985;28;20200;-68
2023/11/21 00:47:58;;;;;;;35.42;28.02;;;;;;;10.98;95.51;97806.84;5026766;28;20017;-68
2023/11/21 00:50:26;;;;;;;42.17;29.30;;;;;;;10.94;95.29;97804.56;5016143;28;20044;-67
2023/11/21 00:52:51;;;;;;;33.70;27.52;;;;;;;10.68;95.37;97759.78;5032520;28;20072;-67
2023/11/21 00:55:21;;;;;;;33.35;26.13;;;;;;;10.80;95.76;97807.84;5021272;28;20029;-67
2023/11/21 00:57:47;;;;;;;30.42;26.00;;;;;;;10.63;96.09;97773.25;5029485;28;20057;-67
2023/11/21 01:00:17;;;;;;;31.52;26.27;;;;;;;10.85;95.80;97797.75;5031275;28;20086;-68
2023/11/21 01:02:47;;;;;;;31.70;25.25;;;;;;;10.58;95.71;97752.94;5034527;28;20145;-68
2023/11/21 01:05:13;;;;;;;31.77;25.67;;;;;;;10.65;96.48;97786.91;5009268;28;20136;-68
2023/11/21 01:07:40;;;;;;;31.90;24.83;;;;;;;10.74;96.78;97788.50;5026132;28;20404;-68
2023/11/21 01:10:07;;;;;;;31.52;25.88;;;;;;;10.78;96.43;97794.19;5026526;28;20025;-67
2023/11/21 01:12:37;;;;;;;29.08;25.25;;;;;;;10.82;96.50;97792.88;5013445;28;20087;-68
2023/11/21 01:15:06;;;;;;;36.35;25.80;;;;;;;10.84;96.75;97800.53;5016383;28;20754;-67
2023/11/21 01:17:34;;;;;;;30.85;24.45;;;;;;;10.75;97.40;97789.31;5039941;28;20033;-67
2023/11/21 01:20:00;;;;;;;33.63;24.23;;;;;;;10.78;97.35;97779.41;5029994;28;20032;-68
2023/11/21 01:22:28;;;;;;;31.05;24.58;;;;;;;10.83;97.42;97785.91;5028320;28;20695;-68
2023/11/21 01:24:54;;;;;;;32.88;24.75;;;;;;;10.82;97.24;97777.28;5018785;28;20032;-68
2023/11/21 01:27:20;;;;;;;29.05;23.52;;;;;;;10.75;97.39;97778.91;5046018;28;20028;-67
2023/11/21 01:29:45;;;;;;;26.73;22.48;;;;;;;10.59;97.09;97740.78;5023687;28;20052;-65
2023/11/21 01:32:10;;;;;;;31.27;23.27;;;;;;;10.49;97.30;97733.16;5027777;28;20081;-67
2023/11/21 01:34:38;;;;;;;29.33;23.75;;;;;;;10.70;97.57;97769.03;5029762;28;20017;-67
2023/11/21 01:37:05;;;;;;;29.23;23.63;;;;;;;10.62;98.36;97766.44;5021732;28;20032;-68
2023/11/21 01:39:31;;;;;;;31.20;25.13;;;;;;;10.63;98.53;97769.88;5025125;28;20051;-67
2023/11/21 01:41:59;;;;;;;32.28;24.88;;;;;;;10.68;98.55;97770.19;5029300;28;20025;-67
2023/11/21 01:44:24;;;;;;;30.70;24.52;;;;;;;10.71;98.35;97759.44;5036425;28;20052;-68
2023/11/21 01:46:50;;;;;;;28.92;22.98;;;;;;;10.64;98.60;97751.50;5005811;28;20153;-64
2023/11/21 01:49:21;;;;;;;27.90;21.98;;;;;;;10.31;98.39;97722.13;5005637;28;20024;-67
2023/11/21 01:51:48;;;;;;;28.75;20.67;;;;;;;10.53;98.63;97746.63;5028267;28;21162;-70
2023/11/21 01:54:15;;;;;;;29.52;22.48;;;;;;;10.53;98.33;97751.81;5023578;28;20037;-68
2023/11/21 01:56:40;;;;;;;27.25;22.33;;;;;;;10.49;98.41;97751.34;5013697;28;20302;-67
2023/11/21 01:59:07;;;;;;;27.65;21.98;;;;;;;10.54;98.06;97746.47;5003532;28;20586;-68
2023/11/21 02:01:33;;;;;;;26.95;21.48;;;;;;;10.41;98.58;97717.59;5023314;28;20017;-67
2023/11/21 02:03:59;;;;;;;26.73;21.88;;;;;;;10.65;98.17;97757.50;5021997;28;20032;-67
2023/11/21 02:06:25;;;;;;;27.95;21.65;;;;;;;10.64;98.21;97753.28;5030803;28;20079;-67
2023/11/21 02:08:51;;;;;;;27.88;22.40;;;;;;;10.63;98.17;97751.66;5028909;28;20127;-67
2023/11/21 02:11:19;;;;;;;25.83;21.30;;;;;;;10.39;98.52;97735.94;5012227;28;20029;-66
2023/11/21 02:13:45;;;;;;;26.30;22.00;;;;;;;10.36;99.48;97751.84;5034054;28;20024;-66
2023/11/21 02:16:12;;;;;;;25.38;22.08;;;;;;;10.31;99.46;97733.38;5007778;28;20631;-68
2023/11/21 02:18:38;;;;;;;27.40;22.60;;;;;;;10.42;99.19;97739.97;5027849;28;20103;-66
2023/11/21 02:21:07;;;;;;;29.70;22.65;;;;;;;10.42;99.45;97737.38;5006197;28;20142;-67
2023/11/21 02:23:33;;;;;;;29.10;23.60;;;;;;;10.40;99.50;97741.94;5009976;28;20221;-67
2023/11/21 02:25:59;;;;;;;31.70;24.20;;;;;;;10.45;99.29;97744.88;5027314;28;20029;-67
2023/11/21 02:28:27;;;;;;;30.75;23.33;;;;;;;10.34;98.89;97743.41;5019241;28;20617;-64
2023/11/21 02:30:56;;;;;;;30.30;23.63;;;;;;;10.36;99.28;97732.84;5025812;28;20275;-66
2023/11/21 02:33:22;;;;;;;29.25;22.77;;;;;;;10.43;99.63;97735.63;5010937;28;20032;-70
2023/11/21 02:35:48;;;;;;;26.98;23.02;;;;;;;10.42;99.21;97747.78;5046069;28;20603;-68
2023/11/21 02:38:13;;;;;;;30.67;23.35;;;;;;;10.36;99.95;97738.06;5027369;28;20041;-69
2023/11/21 02:40:39;;;;;;;28.58;22.13;;;;;;;10.41;99.99;97733.19;5029040;28;20055;-68
2023/11/21 02:43:05;;;;;;;26.05;22.20;;;;;;;10.20;100.00;97724.09;5011668;28;20504;-67
2023/11/21 02:45:31;;;;;;;28.17;22.27;;;;;;;10.12;100.00;97725.88;5026545;28;20048;-70
2023/11/21 02:48:01;;;;;;;28.23;21.55;;;;;;;10.29;100.00;97714.47;5028072;28;20124;-69
2023/11/21 02:50:27;;;;;;;25.50;20.50;;;;;;;10.29;100.00;97717.06;5018967;28;20106;-69
2023/11/21 02:52:54;;;;;;;29.50;21.27;;;;;;;10.03;100.00;97682.69;5036164;28;20997;-69
2023/11/21 02:55:20;;;;;;;26.23;21.20;;;;;;;10.17;100.00;97705.41;5027950;28;20139;-70
2023/11/21 02:57:45;;;;;;;29.98;21.75;;;;;;;10.25;100.00;97722.78;5031128;28;20033;-68
2023/11/21 03:00:14;;;;;;;26.40;21.55;;;;;;;10.08;100.00;97704.59;5024980;28;20017;-69
2023/11/21 03:02:47;;;;;;;26.20;21.52;;;;;;;10.19;100.00;97725.06;5025417;28;20472;-65
2023/11/21 03:05:15;;;;;;;27.35;20.90;;;;;;;10.19;100.00;97714.66;5025513;28;20714;-68
2023/11/21 03:07:40;;;;;;;28.05;20.58;;;;;;;10.17;100.00;97719.22;5021703;28;20106;-67
2023/11/21 03:10:08;;;;;;;25.42;21.23;;;;;;;10.17;100.00;97723.59;5007136;28;20026;-66
2023/11/21 03:12:37;;;;;;;26.42;20.15;;;;;;;10.15;100.00;97712.56;5041973;28;20072;-69
2023/11/21 03:15:05;;;;;;;28.02;21.58;;;;;;;10.06;100.00;97722.16;5030119;28;20025;-69
2023/11/21 03:17:31;;;;;;;27.55;20.90;;;;;;;10.14;100.00;97722.13;5028705;28;20040;-69
2023/11/21 03:19:57;;;;;;;27.95;21.73;;;;;;;10.07;100.00;97718.56;5014507;28;20033;-67
2023/11/21 03:22:24;;;;;;;25.50;19.88;;;;;;;9.98;100.00;97675.38;5025293;28;20025;-67
2023/11/21 03:24:50;;;;;;;32.13;22.33;;;;;;;10.11;100.00;97706.06;5028841;28;20025;-69
2023/11/21 03:27:17;;;;;;;29.83;21.02;;;;;;;10.11;100.00;97706.88;5048564;28;20025;-68
2023/11/21 03:29:43;;;;;;;28.45;21.02;;;;;;;10.14;100.00;97710.94;5005535;28;20037;-69
2023/11/21 03:32:09;;;;;;;27.67;21.48;;;;;;;9.94;100.00;97692.28;5043535;28;20056;-68
2023/11/21 03:34:34;;;;;;;26.40;20.70;;;;;;;10.01;100.00;97712.22;5012050;28;20048;-68
2023/11/21 03:37:00;;;;;;;28.98;20.98;;;;;;;9.63;100.00;97669.56;5033156;28;20568;-70
2023/11/21 03:39:25;;;;;;;26.55;20.67;;;;;;;9.80;100.00;97706.72;5021918;28;20504;-69
2023/11/21 03:41:51;;;;;;;28.92;20.52;;;;;;;9.47;100.00;97678.13;5033748;28;20048;-69
2023/11/21 03:44:17;;;;;;;28.55;20.10;;;;;;;9.73;100.00;97716.94;5019277;28;20029;-71
2023/11/21 03:46:44;;;;;;;28.33;20.88;;;;;;;9.46;100.00;97678.31;5046136;28;20069;-68
2023/11/21 03:49:10;;;;;;;26.20;18.92;;;;;;;9.73;100.00;97714.34;5031592;28;20079;-69
2023/11/21 03:51:38;;;;;;;24.35;19.40;;;;;;;9.77;100.00;97720.03;5030373;28;20083;-69
2023/11/21 03:54:04;;;;;;;23.55;19.63;;;;;;;9.73;100.00;97722.13;5032357;28;20084;-68
2023/11/21 03:56:32;;;;;;;29.45;20.60;;;;;;;9.52;100.00;97716.59;5035829;28;20127;-66
2023/11/21 03:58:57;;;;;;;26.85;20.23;;;;;;;9.48;100.00;97720.47;5015174;28;20017;-69
2023/11/21 04:01:25;;;;;;;25.02;19.92;;;;;;;9.53;100.00;97718.22;5031003;28;20067;-72
2023/11/21 04:03:52;;;;;;;29.25;20.23;;;;;;;9.59;100.00;97708.00;5031898;28;20048;-66
2023/11/21 04:06:17;;;;;;;25.02;19.38;;;;;;;9.54;100.00;97706.84;5028263;28;20519;-66
2023/11/21 04:08:44;;;;;;;26.20;20.30;;;;;;;9.48;100.00;97704.91;5026424;28;20116;-68
2023/11/21 04:11:11;;;;;;;25.45;19.55;;;;;;;9.47;100.00;97724.84;5051770;28;20035;-68
2023/11/21 04:13:40;;;;;;;26.98;20.05;;;;;;;9.45;100.00;97700.84;5029468;28;20047;-68
2023/11/21 04:16:06;;;;;;;28.90;20.33;;;;;;;9.47;100.00;97700.69;5031429;28;20037;-65
2023/11/21 04:18:34;;;;;;;26.98;20.42;;;;;;;9.34;100.00;97688.97;5021520;28;20468;-68
2023/11/21 04:21:03;;;;;;;27.77;20.17;;;;;;;9.52;100.00;97701.03;5031038;28;20577;-68
2023/11/21 04:23:30;;;;;;;27.50;20.35;;;;;;;9.49;100.00;97703.91;5029039;28;20021;-68
2023/11/21 04:25:57;;;;;;;28.08;20.77;;;;;;;9.35;100.00;97679.44;5015230;28;20040;-70
2023/11/21 04:28:23;;;;;;;29.63;19.70;;;;;;;9.47;100.00;97711.06;5030470;28;20032;-68
2023/11/21 04:30:48;;;;;;;28.92;20.98;;;;;;;9.20;100.00;97669.66;5030078;28;20021;-69
2023/11/21 04:33:14;;;;;;;26.98;20.27;;;;;;;9.43;100.00;97713.97;5016305;28;20628;-68
2023/11/21 04:35:39;;;;;;;26.15;18.63;;;;;;;9.30;100.00;97702.44;5031026;28;20136;-68
2023/11/21 04:38:04;;;;;;;28.40;20.33;;;;;;;9.42;100.00;97711.56;5033688;28;20044;-68
2023/11/21 04:40:32;;;;;;;29.45;19.50;;;;;;;9.38;100.00;97711.06;5033459;28;20025;-70
2023/11/21 04:42:58;;;;;;;25.65;19.67;;;;;;;9.50;100.00;97705.56;5050708;28;20025;-68
2023/11/21 04:45:26;;;;;;;27.15;19.08;;;;;;;9.61;100.00;97715.63;5028663;28;20721;-69
2023/11/21 04:47:52;;;;;;;24.65;18.10;;;;;;;9.52;100.00;97682.84;5032279;28;20047;-69
2023/11/21 04:50:18;;;;;;;25.70;19.63;;;;;;;9.51;100.00;97673.44;5028284;28;20500;-69
2023/11/21 04:52:44;;;;;;;25.10;18.70;;;;;;;9.79;100.00;97723.28;5029642;28;20448;-68
2023/11/21 04:55:09;;;;;;;25.30;18.75;;;;;;;9.58;100.00;97684.78;5016678;28;20028;-69
2023/11/21 04:57:38;;;;;;;26.70;19.48;;;;;;;9.79;100.00;97729.28;5028281;28;20053;-68
2023/11/21 05:00:05;;;;;;;25.17;20.17;;;;;;;9.86;100.00;97728.66;5027014;28;20037;-70
2023/11/21 05:02:33;;;;;;;28.45;20.55;;;;;;;9.78;100.00;97735.44;5013615;28;20044;-67
2023/11/21 05:05:02;;;;;;;28.25;20.73;;;;;;;9.74;100.00;97744.50;5027714;28;20028;-70
2023/11/21 05:07:30;;;;;;;25.92;20.33;;;;;;;9.70;100.00;97737.22;5015683;28;20654;-68
2023/11/21 05:10:03;;;;;;;27.85;21.25;;;;;;;9.54;100.00;97731.00;5026580;28;20031;-69
2023/11/21 05:12:34;;;;;;;29.55;21.15;;;;;;;9.47;100.00;97724.84;5043289;28;20143;-67
2023/11/21 05:15:00;;;;;;;31.35;21.73;;;;;;;9.42;100.00;97719.34;5028989;28;20009;-69
2023/11/21 05:17:29;;;;;;;28.42;22.10;;;;;;;9.29;100.00;97719.78;5030111;28;20905;-69
2023/11/21 05:19:54;;;;;;;25.52;20.25;;;;;;;9.35;100.00;97716.56;5026648;28;20033;-69
2023/11/21 05:22:22;;;;;;;28.60;21.17;;;;;;;9.28;100.00;97702.59;5046243;28;20657;-69
2023/11/21 05:24:47;;;;;;;27.05;21.02;;;;;;;9.40;100.00;97711.72;5028615;28;20029;-69
2023/11/21 05:27:16;;;;;;;28.35;21.00;;;;;;;9.47;100.00;97706.66;5029316;28;20028;-70
2023/11/21 05:29:41;;;;;;;25.02;19.60;;;;;;;9.39;100.00;97697.09;5032330;28;20052;-66
2023/11/21 05:32:06;;;;;;;26.65;20.33;;;;;;;9.36;100.00;97713.00;5027420;28;20047;-67
2023/11/21 05:34:36;;;;;;;28.67;19.60;;;;;;;9.32;100.00;97713.47;5031290;28;20020;-69
2023/11/21 05:37:02;;;;;;;29.23;20.38;;;;;;;9.18;100.00;97714.88;5013227;28;21241;-68
2023/11/21 05:39:32;;;;;;;25.58;19.67;;;;;;;9.08;100.00;97714.22;5034120;28;20013;-71
2023/11/21 05:42:00;;;;;;;25.58;19.60;;;;;;;9.17;100.00;97736.59;5048019;28;20164;-68
2023/11/21 05:44:29;;;;;;;29.92;20.05;;;;;;;9.22;100.00;97731.78;5044567;28;20033;-66
2023/11/21 05:46:54;;;;;;;28.80;20.38;;;;;;;9.12;100.00;97726.69;5028434;28;20032;-66
2023/11/21 05:49:21;;;;;;;27.13;19.52;;;;;;;9.18;100.00;97727.84;5030540;28;20666;-67
2023/11/21 05:51:47;;;;;;;27.30;20.23;;;;;;;9.06;100.00;97724.72;5026092;28;20066;-68
2023/11/21 05:54:13;;;;;;;30.63;20.35;;;;;;;9.09;100.00;97726.19;5028784;28;20123;-68
2023/11/21 05:56:44;;;;;;;29.10;19.88;;;;;;;9.09;100.00;97726.19;5019758;28;20032;-67
2023/11/21 05:59:10;;;;;;;29.48;20.45;;;;;;;9.06;100.00;97722.16;5027543;28;20695;-67
2023/11/21 06:01:38;;;;;;;26.75;19.70;;;;;;;8.79;100.00;97702.44;5026954;28;20059;-67
2023/11/21 06:04:04;;;;;;;23.95;19.38;;;;;;;8.87;100.00;97736.19;5025691;28;20029;-67
2023/11/21 06:06:31;;;;;;;28.48;19.65;;;;;;;8.66;100.00;97710.63;5025210;28;20126;-69
2023/11/21 06:08:57;;;;;;;29.33;19.00;;;;;;;8.64;100.00;97703.00;5021607;28;20032;-70
2023/11/21 06:11:22;;;;;;;26.67;19.50;;;;;;;8.91;100.00;97737.47;5008172;28;20017;-71
2023/11/21 06:13:48;;;;;;;25.50;18.77;;;;;;;8.94;100.00;97741.53;5023916;28;21271;-66
2023/11/21 06:16:18;;;;;;;26.40;18.50;;;;;;;8.95;100.00;97741.38;5028093;28;20039;-69
2023/11/21 06:18:46;;;;;;;26.38;18.90;;;;;;;8.95;100.00;97736.19;5023420;28;20029;-66
2023/11/21 06:21:12;;;;;;;23.80;17.35;;;;;;;8.73;100.00;97716.00;5044580;28;20041;-69
2023/11/21 06:23:38;;;;;;;22.98;16.55;;;;;;;8.87;100.00;97740.53;5026283;28;20047;-69
2023/11/21 06:26:04;;;;;;;27.42;19.02;;;;;;;8.99;100.00;97747.88;5023563;28;20031;-68
2023/11/21 06:28:33;;;;;;;29.02;19.50;;;;;;;8.78;100.00;97716.34;5026780;28;20029;-65
2023/11/21 06:30:58;;;;;;;26.92;19.33;;;;;;;8.88;100.00;97749.94;5028954;28;20013;-68
2023/11/21 06:33:27;;;;;;;24.98;17.20;;;;;;;8.87;100.00;97741.38;5023916;28;20060;-68
2023/11/21 06:35:55;;;;;;;30.35;18.65;;;;;;;8.93;100.00;97745.91;5039036;28;20140;-72
2023/11/21 06:38:22;;;;;;;23.92;17.25;;;;;;;8.86;100.00;97742.31;5029194;28;20029;-68
2023/11/21 06:40:48;;;;;;;28.40;19.80;;;;;;;8.56;100.00;97738.41;5006114;28;20036;-69
2023/11/21 06:43:16;;;;;;;25.92;18.30;;;;;;;8.49;100.00;97746.00;5026500;28;20033;-69
2023/11/21 06:45:41;;;;;;;28.73;18.83;;;;;;;8.20;100.00;97700.47;5026540;28;20112;-70
2023/11/21 06:48:06;;;;;;;27.08;18.45;;;;;;;8.33;100.00;97748.47;5027723;28;20037;-68
2023/11/21 06:50:32;;;;;;;28.00;19.42;;;;;;;8.30;100.00;97756.53;5009711;28;20029;-69
2023/11/21 06:53:03;;;;;;;27.48;19.23;;;;;;;8.21;100.00;97753.88;5031362;28;20853;-69
2023/11/21 06:55:29;;;;;;;30.52;19.13;;;;;;;8.26;100.00;97745.66;5034584;28;20025;-68
2023/11/21 06:57:54;;;;;;;30.83;20.70;;;;;;;8.34;100.00;97744.88;5035081;28;20028;-69
2023/11/21 07:00:22;;;;;;;26.88;18.52;;;;;;;8.20;100.00;97697.88;5032499;28;20048;-68
2023/11/21 07:02:50;;;;;;;28.48;18.48;;;;;;;8.17;100.00;97690.41;5032608;28;20035;-67
2023/11/21 07:05:20;;;;;;;28.63;19.33;;;;;;;8.39;100.00;97720.16;5051910;28;20315;-69
2023/11/21 07:07:45;;;;;;;27.90;18.40;;;;;;;8.27;100.00;97727.38;5031215;28;20116;-71
2023/11/21 07:10:11;;;;;;;28.58;18.83;;;;;;;8.04;100.00;97708.91;5049684;28;20074;-68
2023/11/21 07:12:36;;;;;;;28.60;19.10;;;;;;;8.13;100.00;97730.50;5034497;28;20495;-68
2023/11/21 07:15:05;;;;;;;26.38;16.80;;;;;;;7.88;100.00;97688.09;5013827;28;20036;-69
2023/11/21 07:17:31;;;;;;;28.70;18.83;;;;;;;8.02;100.00;97722.97;5031631;28;20035;-67
2023/11/21 07:19:56;;;;;;;29.02;19.08;;;;;;;8.06;100.00;97721.72;5032029;28;20028;-69
2023/11/21 07:22:24;;;;;;;31.45;19.60;;;;;;;8.04;100.00;97723.66;5041519;28;21589;-69
2023/11/21 07:24:56;;;;;;;29.42;18.88;;;;;;;7.86;100.00;97682.25;5014729;28;20738;-69
2023/11/21 07:27:25;;;;;;;28.55;18.77;;;;;;;7.97;100.00;97717.44;5044917;28;20795;-70
2023/11/21 07:29:52;;;;;;;30.27;20.02;;;;;;;7.98;100.00;97724.25;5029060;28;20025;-68
2023/11/21 07:32:18;;;;;;;30.80;18.67;;;;;;;7.83;100.00;97682.53;5038441;28;20044;-69
2023/11/21 07:34:45;;;;;;;31.70;18.25;;;;;;;8.05;100.00;97717.53;5036017;28;20024;-70
2023/11/21 07:37:11;;;;;;;29.10;20.52;;;;;;;8.09;100.00;97713.66;5027209;28;20202;-69
2023/11/21 07:39:36;;;;;;;28.15;19.02;;;;;;;8.11;100.00;97716.91;5032680;28;20041;-68
2023/11/21 07:42:05;;;;;;;28.20;19.25;;;;;;;8.14;100.00;97714.03;5027361;28;20033;-66
2023/11/21 07:44:33;;;;;;;27.20;17.98;;;;;;;8.12;100.00;97710.75;5031587;28;20025;-69
2023/11/21 07:46:58;;;;;;;31.58;19.63;;;;;;;8.16;100.00;97708.66;5028122;28;20036;-68
2023/11/21 07:49:26;;;;;;;27.25;17.98;;;;;;;7.94;100.00;97674.56;5032882;28;20542;-69
2023/11/21 07:51:52;;;;;;;33.08;20.23;;;;;;;7.74;100.00;97668.75;5013246;28;20449;-69
2023/11/21 07:54:21;;;;;;;27.52;19.65;;;;;;;7.99;100.00;97711.13;5027894;28;20144;-68
2023/11/21 07:56:49;;;;;;;28.85;17.67;;;;;;;8.04;100.00;97706.31;5033491;28;20506;-67
2023/11/21 07:59:14;;;;;;;32.22;19.75;;;;;;;8.13;100.00;97706.41;5015859;28;20261;-68
2023/11/21 08:01:40;;;;;;;29.75;18.17;;;;;;;8.14;100.00;97693.31;5030540;28;20047;-69
2023/11/21 08:04:06;;;;;;;28.77;19.70;;;;;;;8.12;100.00;97687.44;5031077;28;20032;-69
2023/11/21 08:06:32;;;;;;;27.38;19.23;;;;;;;7.90;100.00;97670.63;5022199;28;20131;-68
2023/11/21 08:08:58;;;;;;;30.55;20.10;;;;;;;8.17;100.00;97700.75;5020923;28;20571;-68
2023/11/21 08:11:29;;;;;;;28.63;19.45;;;;;;;8.15;100.00;97696.69;5016159;28;20537;-69
2023/11/21 08:13:54;;;;;;;29.63;19.98;;;;;;;8.15;100.00;97701.88;5034938;28;20041;-67
2023/11/21 08:16:20;;;;;;;28.38;19.45;;;;;;;8.08;100.00;97688.72;5028693;28;20029;-70
2023/11/21 08:18:45;;;;;;;30.70;18.60;;;;;;;7.99;100.00;97658.56;5030823;28;20037;-69
2023/11/21 08:21:15;;;;;;;30.75;19.27;;;;;;;8.25;100.00;97695.63;5042647;28;20531;-68
2023/11/21 08:23:40;;;;;;;31.75;19.40;;;;;;;8.41;100.00;97701.88;5031590;28;20027;-67
2023/11/21 08:26:10;;;;;;;29.83;19.15;;;;;;;8.49;100.00;97698.53;5033493;28;20025;-69
2023/11/21 08:28:36;;;;;;;31.25;20.58;;;;;;;8.44;100.00;97699.03;5046420;28;20483;-69
2023/11/21 08:31:01;;;;;;;29.70;19.10;;;;;;;8.41;100.00;97687.13;5029501;28;20025;-69
2023/11/21 08:33:27;;;;;;;29.17;18.88;;;;;;;8.50;100.00;97695.00;5008768;28;20047;-69
2023/11/21 08:35:55;;;;;;;30.73;20.48;;;;;;;8.45;100.00;97690.25;5035753;28;20029;-68
2023/11/21 08:38:23;;;;;;;28.48;19.48;;;;;;;8.59;100.00;97694.88;5029759;28;20029;-67
2023/11/21 08:40:50;;;;;;;28.35;19.45;;;;;;;8.53;100.00;97687.72;5042129;28;20029;-69
2023/11/21 08:43:19;;;;;;;29.40;19.80;;;;;;;8.58;100.00;97688.09;5041826;28;20079;-68
2023/11/21 08:45:45;;;;;;;29.93;19.60;;;;;;;8.68;100.00;97682.78;5038847;28;20047;-68
2023/11/21 08:48:11;;;;;;;30.77;19.45;;;;;;;8.66;100.00;97687.31;5026327;28;20029;-69
2023/11/21 08:50:37;;;;;;;28.88;19.38;;;;;;;8.83;100.00;97680.41;5006368;28;20033;-69
2023/11/21 08:53:05;;;;;;;27.20;18.33;;;;;;;8.89;100.00;97671.19;5023282;28;21040;-69
2023/11/21 08:55:31;;;;;;;28.98;18.73;;;;;;;8.88;100.00;97665.19;5008748;28;20844;-65
2023/11/21 08:57:59;;;;;;;30.42;18.77;;;;;;;8.80;100.00;97657.41;5023657;28;20032;-68
2023/11/21 09:00:26;;;;;;;26.45;18.77;;;;;;;8.72;100.00;97665.13;5023155;28;20029;-68
2023/11/21 09:02:52;;;;;;;28.73;18.55;;;;;;;8.62;100.00;97652.31;5005651;28;20222;-67
2023/11/21 09:05:20;;;;;;;26.83;18.35;;;;;;;8.57;100.00;97657.13;5026018;28;20322;-70
2023/11/21 09:07:46;;;;;;;30.85;19.13;;;;;;;8.45;100.00;97649.66;5023894;28;20901;-68
2023/11/21 09:10:16;;;;;;;31.40;19.92;;;;;;;8.38;100.00;97640.03;5007287;28;20028;-65
2023/11/21 09:12:44;;;;;;;28.58;19.48;;;;;;;8.11;100.00;97612.53;5003113;28;20789;-68
2023/11/21 09:15:11;;;;;;;30.13;19.40;;;;;;;8.15;100.00;97616.44;5004345;28;21297;-68
2023/11/21 09:17:36;;;;;;;29.98;20.42;;;;;;;8.50;100.00;97643.97;5024201;28;20247;-70
2023/11/21 09:20:05;;;;;;;29.13;18.67;;;;;;;8.33;100.00;97640.47;5022469;28;20118;-68
2023/11/21 09:22:31;;;;;;;31.02;19.63;;;;;;;8.30;100.00;97629.63;5022878;28;20124;-66
2023/11/21 09:24:57;;;;;;;29.20;19.75;;;;;;;8.16;100.00;97605.91;5039820;28;20100;-66
2023/11/21 09:27:23;;;;;;;32.65;20.23;;;;;;;8.32;100.00;97636.25;5023122;28;20081;-70
2023/11/21 09:29:48;;;;;;;30.02;19.33;;;;;;;8.32;100.00;97625.09;5023830;28;20420;-68
2023/11/21 09:32:18;;;;;;;27.52;19.20;;;;;;;8.28;100.00;97611.63;5019904;28;20032;-69
2023/11/21 09:34:46;;;;;;;;;;;;;;;8.53;100.00;97616.97;5023852;28;20116;-69
2023/11/21 09:37:11;;;;;;;30.85;19.00;;;;;;;8.60;100.00;97618.78;5025543;28;20462;-68
2023/11/21 09:39:39;;;;;;;28.38;17.88;;;;;;;8.73;100.00;97604.56;5024098;28;20029;-68
2023/11/21 09:42:05;;;;;;;27.98;18.90;;;;;;;8.83;100.00;97606.06;5022047;28;20029;-69
2023/11/21 09:44:53;;;;;;;29.95;19.73;;;;;;;8.84;100.00;97601.69;5023316;28;20032;-65
2023/11/21 09:47:20;;;;;;;31.85;20.73;;;;;;;8.83;100.00;97584.50;5025570;28;20140;-66
2023/11/21 09:49:51;;;;;;;33.67;21.67;;;;;;;8.96;100.00;97589.22;5023030;28;20144;-68
2023/11/21 09:52:27;;;;;;;31.75;19.65;;;;;;;9.07;100.00;97593.28;5023130;28;20057;-68
2023/11/21 09:54:58;;;;;;;38.78;24.02;;;;;;;9.18;100.00;97596.41;5021654;28;20032;-66
2023/11/21 09:57:25;;;;;;;30.70;19.88;;;;;;;9.09;100.00;97562.81;5022610;28;20153;-67
2023/11/21 09:59:58;;;;;;;27.65;19.10;;;;;;;9.21;100.00;97596.06;5023845;28;20051;-68
2023/11/21 10:02:30;;;;;;;29.60;17.88;;;;;;;9.22;100.00;97583.91;5021503;28;20040;-70
2023/11/21 10:04:56;;;;;;;31.48;21.05;;;;;;;9.34;100.00;97585.19;5007187;28;20162;-69
2023/11/21 10:07:24;;;;;;;29.25;19.40;;;;;;;9.35;100.00;97586.03;5005667;28;20060;-71
2023/11/21 10:09:53;;;;;;;26.48;17.48;;;;;;;9.48;100.00;97593.34;5021643;28;20037;-65
2023/11/21 10:12:25;;;;;;;30.55;18.40;;;;;;;9.42;100.00;97553.28;5017167;28;20033;-69
2023/11/21 10:14:52;;;;;;;25.48;17.35;;;;;;;9.69;100.00;97578.06;4999910;28;20877;-66
2023/11/21 10:17:21;;;;;;;25.55;16.95;;;;;;;9.62;100.00;97567.53;5022688;28;20033;-68
2023/11/21 10:19:47;;;;;;;24.67;16.98;;;;;;;9.61;100.00;97560.69;5023748;28;20086;-69
2023/11/21 10:22:14;;;;;;;23.92;16.25;;;;;;;9.41;100.00;97512.72;5022431;28;20045;-68
2023/11/21 10:24:40;;;;;;;26.00;17.45;;;;;;;9.37;100.00;97516.63;5015160;28;20729;-69
2023/11/21 10:27:05;;;;;;;27.80;17.50;;;;;;;9.64;100.00;97546.59;5014197;28;20021;-68
2023/11/21 10:29:35;;;;;;;25.70;18.35;;;;;;;9.77;100.00;97549.50;5020952;28;20566;-68
2023/11/21 10:32:02;;;;;;;23.70;16.38;;;;;;;9.64;100.00;97538.81;5021854;28;20037;-68
2023/11/21 10:34:27;;;;;;;25.00;15.98;;;;;;;9.78;99.31;97537.31;5020395;28;20067;-69
2023/11/21 10:36:53;;;;;;;21.88;15.88;;;;;;;9.86;98.11;97528.72;5018648;28;21188;-72
2023/11/21 10:39:20;;;;;;;24.13;16.88;;;;;;;9.81;97.40;97526.59;5007655;28;20054;-70
2023/11/21 10:41:50;;;;;;;25.90;16.42;;;;;;;9.92;96.73;97530.63;5018147;28;20031;-66
2023/11/21 10:44:23;;;;;;;21.73;15.82;;;;;;;10.05;96.03;97527.50;5000810;28;20018;-69
2023/11/21 10:46:57;;;;;;;22.08;15.68;;;;;;;9.97;93.65;97505.78;5022610;28;20029;-69
2023/11/21 10:49:29;;;;;;;26.30;16.23;;;;;;;10.15;93.88;97522.94;5004237;28;20056;-69
2023/11/21 10:51:56;;;;;;;24.20;15.85;;;;;;;10.24;93.38;97526.28;5020991;28;20515;-69
2023/11/21 10:54:25;;;;;;;24.10;15.63;;;;;;;10.23;93.24;97522.91;5020083;28;20029;-68
2023/11/21 10:56:58;;;;;;;27.20;15.38;;;;;;;10.13;89.69;97510.13;5022936;28;20025;-69
2023/11/21 10:59:28;;;;;;;20.45;14.25;;;;;;;10.39;89.30;97522.84;5004199;28;20272;-69
2023/11/21 11:01:57;;;;;;;23.77;14.98;;;;;;;10.49;89.05;97521.81;5023332;28;20715;-67
2023/11/21 11:04:27;;;;;;;19.50;13.40;;;;;;;10.58;87.30;97518.19;5003785;28;20142;-67
2023/11/21 11:06:57;;;;;;;19.50;13.35;;;;;;;10.51;84.94;97510.31;5014666;28;20268;-69
2023/11/21 11:09:23;;;;;;;20.23;13.70;;;;;;;10.44;85.33;97472.97;5022719;28;20813;-68
2023/11/21 11:11:49;;;;;;;18.55;13.23;;;;;;;10.77;84.10;97502.16;5018755;28;20029;-67
2023/11/21 11:14:14;;;;;;;20.90;13.52;;;;;;;10.86;84.43;97505.53;5015920;28;20036;-68
2023/11/21 11:16:42;;;;;;;22.08;14.70;;;;;;;10.86;84.84;97500.31;5037162;28;20033;-68